Time,TemperatureF,DewpointF,PressureIn,WindDirection,WindDirectionDegrees,WindSpeedMPH,WindSpeedGustMPH,Humidity,HourlyPrecipIn,Conditions,Clouds,dailyrainin,SoftwareType,DateUTC
2013-07-25 00:00:00,63.1,57.5,29.95,North,359,0.0,0.0,82,0.01,,---,0.00,VWS V14.01,2013-07-25 04:00:00,
2013-07-25 00:01:00,68.2,53.2,29.84,North,359,0.0,0.0,59,0.01,,---,0.00,VWS V14.01,2013-07-25 04:01:00,
2013-07-25 00:06:00,68.0,53.2,29.84,North,359,0.0,0.0,59,0.01,,---,0.00,VWS V14.01,2013-07-25 04:06:00,
2013-07-25 00:11:00,67.7,53.2,29.85,North,359,0.0,0.0,60,0.01,,---,0.00,VWS V14.01,2013-07-25 04:11:00,
2013-07-25 00:16:00,67.7,53.4,29.85,North,359,0.0,0.0,60,0.00,,---,0.00,VWS V14.01,2013-07-25 04:16:00,
2013-07-25 00:21:00,67.1,52.7,29.85,North,359,0.0,0.0,60,0.00,,---,0.00,VWS V14.01,2013-07-25 04:21:00,
2013-07-25 00:26:00,66.4,52.2,29.85,North,359,0.0,0.0,60,0.00,,---,0.00,VWS V14.01,2013-07-25 04:26:00,
2013-07-25 00:31:00,66.8,52.9,29.85,NNW,338,0.0,0.0,61,0.00,,---,0.00,VWS V14.01,2013-07-25 04:31:00,
2013-07-25 00:37:00,67.2,53.6,29.85,North,359,0.0,0.0,62,0.00,,---,0.00,VWS V14.01,2013-07-25 04:37:00,
2013-07-25 00:42:00,66.4,52.7,29.85,North,359,0.0,0.0,61,0.00,,---,0.00,VWS V14.01,2013-07-25 04:42:00,
2013-07-25 00:47:00,65.8,52.6,29.85,North,359,0.0,0.0,62,0.00,,---,0.00,VWS V14.01,2013-07-25 04:47:00,
2013-07-25 00:52:00,66.2,52.9,29.84,North,359,0.0,8.0,62,0.00,,---,0.00,VWS V14.01,2013-07-25 04:52:00,
2013-07-25 00:57:00,66.6,53.5,29.85,North,359,0.0,8.0,63,0.00,,---,0.00,VWS V14.01,2013-07-25 04:57:00,
2013-07-25 01:02:00,66.3,52.4,29.85,North,359,0.0,8.0,61,0.00,,---,0.00,VWS V14.01,2013-07-25 05:02:00,
2013-07-25 01:07:00,66.8,52.8,29.85,North,359,0.0,8.0,61,0.00,,---,0.00,VWS V14.01,2013-07-25 05:07:00,
2013-07-25 01:12:00,66.0,51.8,29.84,North,359,0.0,8.0,60,0.00,,---,0.00,VWS V14.01,2013-07-25 05:12:00,
2013-07-25 01:17:00,67.0,52.3,29.84,North,359,0.0,14.6,59,0.00,,---,0.00,VWS V14.01,2013-07-25 05:17:00,
2013-07-25 01:22:00,66.5,52.0,29.84,North,359,0.0,15.9,60,0.00,,---,0.00,VWS V14.01,2013-07-25 05:22:00,
2013-07-25 01:27:00,67.2,52.4,29.84,North,359,0.0,15.9,59,0.00,,---,0.00,VWS V14.01,2013-07-25 05:27:00,
2013-07-25 01:32:00,66.6,51.6,29.84,North,359,0.0,15.9,58,0.00,,---,0.00,VWS V14.01,2013-07-25 05:32:00,
2013-07-25 01:37:00,66.3,51.4,29.84,North,359,0.0,15.9,59,0.00,,---,0.00,VWS V14.01,2013-07-25 05:37:00,
2013-07-25 01:42:00,66.4,51.6,29.84,North,359,0.0,15.9,59,0.00,,---,0.00,VWS V14.01,2013-07-25 05:42:00,
2013-07-25 01:47:00,66.6,51.9,29.84,North,359,0.0,15.9,59,0.00,,---,0.00,VWS V14.01,2013-07-25 05:47:00,
2013-07-25 01:52:00,65.9,51.8,29.84,North,359,0.0,15.9,60,0.00,,---,0.00,VWS V14.01,2013-07-25 05:52:00,
2013-07-25 01:57:00,65.4,50.8,29.84,North,359,0.0,15.9,59,0.00,,---,0.00,VWS V14.01,2013-07-25 05:57:00,
2013-07-25 02:02:00,65.5,50.7,29.84,North,359,0.0,15.9,59,0.00,,---,0.00,VWS V14.01,2013-07-25 06:02:00,
2013-07-25 02:07:00,66.0,51.2,29.84,North,359,0.0,15.9,59,0.00,,---,0.00,VWS V14.01,2013-07-25 06:07:00,
2013-07-25 02:12:00,65.6,51.0,29.84,North,359,0.0,15.9,59,0.00,,---,0.00,VWS V14.01,2013-07-25 06:12:00,
2013-07-25 02:17:00,66.1,51.6,29.84,North,359,0.0,15.9,60,0.00,,---,0.00,VWS V14.01,2013-07-25 06:17:00,
2013-07-25 02:22:00,65.3,50.8,29.84,North,359,0.0,15.9,59,0.00,,---,0.00,VWS V14.01,2013-07-25 06:22:00,
2013-07-25 02:27:00,65.4,50.7,29.84,North,359,0.0,15.9,59,0.00,,---,0.00,VWS V14.01,2013-07-25 06:27:00,
2013-07-25 02:32:00,64.8,50.0,29.84,North,359,0.0,15.9,59,0.00,,---,0.00,VWS V14.01,2013-07-25 06:32:00,
2013-07-25 02:37:00,65.4,50.9,29.84,North,359,0.0,15.9,59,0.00,,---,0.00,VWS V14.01,2013-07-25 06:37:00,
2013-07-25 02:42:00,65.4,50.7,29.84,North,359,0.0,15.9,59,0.00,,---,0.00,VWS V14.01,2013-07-25 06:42:00,
2013-07-25 02:47:00,65.1,50.8,29.84,North,359,0.0,15.9,60,0.00,,---,0.00,VWS V14.01,2013-07-25 06:47:00,
2013-07-25 02:52:00,64.9,50.9,29.84,North,359,0.0,15.9,60,0.00,,---,0.00,VWS V14.01,2013-07-25 06:52:00,
2013-07-25 02:57:00,64.7,51.1,29.84,North,359,0.0,15.9,61,0.00,,---,0.00,VWS V14.01,2013-07-25 06:57:00,
2013-07-25 03:01:00,66.2,52.0,29.84,North,359,0.0,15.9,60,0.00,,---,0.00,VWS V14.01,2013-07-25 07:01:00,
2013-07-25 03:06:00,65.2,51.7,29.84,North,359,0.0,15.9,62,0.00,,---,0.00,VWS V14.01,2013-07-25 07:06:00,
2013-07-25 03:12:00,66.1,51.9,29.85,North,359,0.0,15.9,60,0.00,,---,0.00,VWS V14.01,2013-07-25 07:12:00,
2013-07-25 03:17:00,65.7,51.9,29.85,North,359,0.0,15.9,61,0.00,,---,0.00,VWS V14.01,2013-07-25 07:17:00,
2013-07-25 03:22:00,65.8,52.2,29.85,North,359,0.0,15.9,61,0.00,,---,0.00,VWS V14.01,2013-07-25 07:22:00,
2013-07-25 03:27:00,64.6,51.0,29.85,North,359,0.0,15.9,61,0.00,,---,0.00,VWS V14.01,2013-07-25 07:27:00,
2013-07-25 03:32:00,65.2,51.7,29.84,North,359,0.0,15.9,62,0.00,,---,0.00,VWS V14.01,2013-07-25 07:32:00,
2013-07-25 03:37:00,64.3,50.9,29.84,North,359,0.0,15.9,62,0.00,,---,0.00,VWS V14.01,2013-07-25 07:37:00,
2013-07-25 03:42:00,64.6,51.5,29.84,North,359,0.0,15.9,62,0.00,,---,0.00,VWS V14.01,2013-07-25 07:42:00,
2013-07-25 03:47:00,64.6,51.6,29.85,North,359,0.0,15.9,63,0.00,,---,0.00,VWS V14.01,2013-07-25 07:47:00,
2013-07-25 03:52:00,65.2,52.2,29.85,North,359,0.0,15.9,63,0.00,,---,0.00,VWS V14.01,2013-07-25 07:52:00,
2013-07-25 03:57:00,65.1,51.7,29.84,North,359,0.0,15.9,62,0.00,,---,0.00,VWS V14.01,2013-07-25 07:57:00,
2013-07-25 04:02:00,64.6,51.3,29.84,North,359,0.0,15.9,62,0.00,,---,0.00,VWS V14.01,2013-07-25 08:02:00,
2013-07-25 04:07:00,64.7,51.4,29.85,NE,49,4.9,15.9,62,0.00,,---,0.00,VWS V14.01,2013-07-25 08:07:00,
2013-07-25 04:12:00,64.4,50.8,29.85,North,359,0.0,15.9,61,0.00,,---,0.00,VWS V14.01,2013-07-25 08:12:00,
2013-07-25 04:17:00,65.1,51.4,29.86,North,359,0.0,15.9,61,0.00,,---,0.00,VWS V14.01,2013-07-25 08:17:00,
2013-07-25 04:22:00,64.6,50.9,29.86,North,359,0.0,15.9,61,0.00,,---,0.00,VWS V14.01,2013-07-25 08:22:00,
2013-07-25 04:27:00,64.4,51.0,29.85,North,359,0.0,15.9,62,0.00,,---,0.00,VWS V14.01,2013-07-25 08:27:00,
2013-07-25 04:32:00,65.1,51.4,29.85,North,359,0.0,15.9,61,0.00,,---,0.00,VWS V14.01,2013-07-25 08:32:00,
2013-07-25 04:37:00,64.6,51.3,29.85,North,359,0.0,15.9,62,0.00,,---,0.00,VWS V14.01,2013-07-25 08:37:00,
2013-07-25 04:42:00,64.3,51.2,29.86,North,359,0.0,31.8,62,0.00,,---,0.00,VWS V14.01,2013-07-25 08:42:00,
2013-07-25 04:47:00,64.4,51.2,29.86,North,359,0.0,31.8,62,0.00,,---,0.00,VWS V14.01,2013-07-25 08:47:00,
2013-07-25 04:52:00,64.0,51.1,29.86,North,359,0.0,31.8,63,0.00,,---,0.00,VWS V14.01,2013-07-25 08:52:00,
2013-07-25 04:57:00,64.1,51.0,29.86,NNE,22,0.0,31.8,62,0.00,,---,0.00,VWS V14.01,2013-07-25 08:57:00,
2013-07-25 05:02:00,64.4,51.5,29.86,NNE,22,0.0,31.8,63,0.00,,---,0.00,VWS V14.01,2013-07-25 09:02:00,
2013-07-25 05:04:00,64.2,51.4,29.86,North,359,0.0,31.8,63,0.00,,---,0.00,VWS V14.01,2013-07-25 09:04:00,
2013-07-25 05:07:00,64.1,51.3,29.86,NNW,335,0.0,31.8,63,0.00,,---,0.00,VWS V14.01,2013-07-25 09:07:00,
2013-07-25 05:12:00,64.4,51.5,29.86,North,359,0.0,31.8,63,0.00,,---,0.00,VWS V14.01,2013-07-25 09:12:00,
2013-07-25 05:17:00,64.9,52.0,29.86,North,359,0.0,31.8,63,0.00,,---,0.00,VWS V14.01,2013-07-25 09:17:00,
2013-07-25 05:22:00,64.6,51.8,29.86,North,0,0.0,31.8,63,0.00,,---,0.00,VWS V14.01,2013-07-25 09:22:00,
2013-07-25 05:27:00,64.7,51.7,29.86,North,359,0.0,31.8,63,0.00,,---,0.00,VWS V14.01,2013-07-25 09:27:00,
2013-07-25 05:32:00,63.7,50.8,29.86,NNE,14,0.0,31.8,63,0.00,,---,0.00,VWS V14.01,2013-07-25 09:32:00,
2013-07-25 05:37:00,64.2,51.3,29.86,NNE,14,0.0,31.8,63,0.00,,---,0.00,VWS V14.01,2013-07-25 09:37:00,
2013-07-25 05:42:00,64.0,51.2,29.86,North,359,0.0,31.8,63,0.00,,---,0.00,VWS V14.01,2013-07-25 09:42:00,
2013-07-25 05:47:00,64.0,51.1,29.86,North,359,0.0,31.8,63,0.00,,---,0.00,VWS V14.01,2013-07-25 09:47:00,
2013-07-25 05:52:00,64.0,51.2,29.86,NE,38,11.1,31.8,63,0.01,,---,0.01,VWS V14.01,2013-07-25 09:52:00,
2013-07-25 05:57:00,64.1,51.4,29.85,North,359,0.0,31.8,63,0.01,,---,0.01,VWS V14.01,2013-07-25 09:57:00,
2013-07-25 06:02:00,64.3,51.8,29.86,North,359,1.2,31.8,64,0.01,,---,0.01,VWS V14.01,2013-07-25 10:02:00,
2013-07-25 06:07:00,63.9,51.5,29.86,North,359,0.0,31.8,64,70.91,,---,0.01,VWS V14.01,2013-07-25 10:07:00,
2013-07-25 06:12:00,64.5,52.2,29.86,North,359,0.0,31.8,64,0.01,,---,0.01,VWS V14.01,2013-07-25 10:12:00,
2013-07-25 06:17:00,63.6,51.5,29.86,North,359,0.0,31.8,65,0.01,,---,0.01,VWS V14.01,2013-07-25 10:17:00,
2013-07-25 06:22:00,63.9,51.8,29.86,North,359,0.0,31.8,65,0.01,,---,0.01,VWS V14.01,2013-07-25 10:22:00,
2013-07-25 06:27:00,64.1,52.0,29.86,North,359,5.3,31.8,65,0.01,,---,0.01,VWS V14.01,2013-07-25 10:27:00,
2013-07-25 06:32:00,64.3,52.3,29.86,North,359,2.4,31.8,65,0.01,,---,0.01,VWS V14.01,2013-07-25 10:32:00,
2013-07-25 06:37:00,63.8,52.0,29.87,North,359,0.0,31.8,66,0.01,,---,0.01,VWS V14.01,2013-07-25 10:37:00,
2013-07-25 06:42:00,63.9,52.0,29.87,North,359,0.0,31.8,65,0.01,,---,0.01,VWS V14.01,2013-07-25 10:42:00,
2013-07-25 06:47:00,64.0,52.3,29.87,North,359,0.0,31.8,66,0.01,,---,0.01,VWS V14.01,2013-07-25 10:47:00,
2013-07-25 06:52:00,64.3,53.0,29.87,North,359,0.0,31.8,67,0.01,,---,0.01,VWS V14.01,2013-07-25 10:52:00,
2013-07-25 06:57:00,64.0,52.4,29.88,North,359,3.3,31.8,66,71.55,,---,0.01,VWS V14.01,2013-07-25 10:57:00,
2013-07-25 07:02:00,64.4,52.8,29.88,North,359,0.0,31.8,66,0.01,,---,0.01,VWS V14.01,2013-07-25 11:02:00,
2013-07-25 07:07:00,64.4,52.9,29.88,NNE,14,0.0,31.8,66,0.01,,---,0.01,VWS V14.01,2013-07-25 11:07:00,
2013-07-25 07:12:00,64.1,52.7,29.89,North,359,0.0,31.8,66,0.01,,---,0.01,VWS V14.01,2013-07-25 11:12:00,
2013-07-25 07:17:00,63.8,52.6,29.89,NE,37,0.0,31.8,67,0.01,,---,0.01,VWS V14.01,2013-07-25 11:17:00,
2013-07-25 07:22:00,64.0,53.0,29.89,North,359,0.0,31.8,68,0.01,,---,0.01,VWS V14.01,2013-07-25 11:22:00,
2013-07-25 07:27:00,63.4,52.5,29.89,North,359,0.0,31.8,68,0.01,,---,0.01,VWS V14.01,2013-07-25 11:27:00,
2013-07-25 07:32:00,63.9,53.3,29.90,North,359,0.0,31.8,68,0.01,,---,0.01,VWS V14.01,2013-07-25 11:32:00,
2013-07-25 07:37:00,63.6,53.1,29.90,North,359,0.0,31.8,68,0.01,,---,0.01,VWS V14.01,2013-07-25 11:37:00,
2013-07-25 07:42:00,64.0,53.5,29.90,North,359,0.0,31.8,69,0.01,,---,0.01,VWS V14.01,2013-07-25 11:42:00,
2013-07-25 07:47:00,64.1,53.7,29.90,North,359,0.0,31.8,69,0.01,,---,0.01,VWS V14.01,2013-07-25 11:47:00,
2013-07-25 07:52:00,63.8,53.4,29.90,North,359,0.0,31.8,69,0.01,,---,0.01,VWS V14.01,2013-07-25 11:52:00,
2013-07-25 07:57:00,64.1,53.8,29.91,North,359,0.0,31.8,69,0.01,,---,0.01,VWS V14.01,2013-07-25 11:57:00,
2013-07-25 08:02:00,64.4,54.2,29.91,NNE,27,0.0,31.8,69,0.01,,---,0.01,VWS V14.01,2013-07-25 12:02:00,
2013-07-25 08:07:00,64.0,53.8,29.91,West,269,0.0,31.8,70,0.01,,---,0.01,VWS V14.01,2013-07-25 12:07:00,
2013-07-25 08:12:00,64.4,54.4,29.91,North,359,0.0,31.8,70,0.01,,---,0.01,VWS V14.01,2013-07-25 12:12:00,
2013-07-25 08:17:00,64.2,54.1,29.91,North,359,0.0,31.8,70,0.01,,---,0.01,VWS V14.01,2013-07-25 12:17:00,
2013-07-25 08:22:00,64.0,53.9,29.91,North,359,0.0,31.8,70,0.01,,---,0.01,VWS V14.01,2013-07-25 12:22:00,
2013-07-25 08:27:00,64.0,53.8,29.91,North,359,0.0,31.8,70,0.01,,---,0.01,VWS V14.01,2013-07-25 12:27:00,
2013-07-25 08:32:00,64.0,53.7,29.91,North,359,0.0,31.8,69,0.01,,---,0.01,VWS V14.01,2013-07-25 12:32:00,
2013-07-25 08:37:00,63.9,53.3,29.91,North,359,0.0,31.8,68,0.01,,---,0.01,VWS V14.01,2013-07-25 12:37:00,
2013-07-25 08:42:00,64.2,53.6,29.91,North,359,0.0,31.8,68,0.01,,---,0.01,VWS V14.01,2013-07-25 12:42:00,
2013-07-25 08:47:00,65.0,54.6,29.92,North,359,0.0,31.8,69,0.01,,---,0.01,VWS V14.01,2013-07-25 12:47:00,
2013-07-25 08:52:00,64.0,53.6,29.92,North,359,0.0,31.8,69,0.01,,---,0.01,VWS V14.01,2013-07-25 12:52:00,
2013-07-25 08:57:00,64.1,53.5,29.92,North,359,0.0,31.8,68,0.01,,---,0.01,VWS V14.01,2013-07-25 12:57:00,
2013-07-25 09:02:00,64.0,53.6,29.92,North,359,0.0,31.8,69,0.01,,---,0.01,VWS V14.01,2013-07-25 13:02:00,
2013-07-25 09:07:00,64.4,54.0,29.92,North,359,0.0,31.8,69,0.01,,---,0.01,VWS V14.01,2013-07-25 13:07:00,
2013-07-25 09:12:00,64.7,54.6,29.92,North,359,0.0,31.8,70,0.01,,---,0.01,VWS V14.01,2013-07-25 13:12:00,
2013-07-25 09:17:00,64.6,54.3,29.92,North,359,0.0,31.8,69,0.01,,---,0.01,VWS V14.01,2013-07-25 13:17:00,
2013-07-25 09:22:00,63.9,54.0,29.92,North,359,0.0,31.8,70,0.01,,---,0.01,VWS V14.01,2013-07-25 13:22:00,
2013-07-25 09:27:00,64.9,55.0,29.92,North,359,0.0,31.8,70,70.43,,---,0.01,VWS V14.01,2013-07-25 13:27:00,
2013-07-25 09:32:00,64.3,54.4,29.92,North,359,0.6,31.8,70,0.01,,---,0.01,VWS V14.01,2013-07-25 13:32:00,
2013-07-25 09:37:00,63.7,53.6,29.92,North,359,0.0,31.8,70,71.07,,---,0.01,VWS V14.01,2013-07-25 13:37:00,
2013-07-25 09:42:00,64.2,54.2,29.92,North,359,0.0,31.8,70,0.01,,---,0.01,VWS V14.01,2013-07-25 13:42:00,
2013-07-25 09:47:00,64.0,53.8,29.92,North,359,0.0,31.8,69,0.01,,---,0.01,VWS V14.01,2013-07-25 13:47:00,
2013-07-25 09:52:00,64.0,53.6,29.92,North,359,0.0,31.8,69,0.01,,---,0.01,VWS V14.01,2013-07-25 13:52:00,
2013-07-25 09:57:00,63.9,53.4,29.92,North,359,8.8,31.8,69,0.01,,---,0.01,VWS V14.01,2013-07-25 13:57:00,
2013-07-25 10:02:00,63.5,52.9,29.92,North,359,0.0,31.8,68,0.01,,---,0.01,VWS V14.01,2013-07-25 14:02:00,
2013-07-25 10:07:00,64.2,53.5,29.92,ENE,60,0.0,31.8,68,0.01,,---,0.01,VWS V14.01,2013-07-25 14:07:00,
2013-07-25 10:12:00,64.3,53.2,29.92,North,359,0.0,31.8,67,0.01,,---,0.01,VWS V14.01,2013-07-25 14:12:00,
2013-07-25 10:17:00,64.1,53.1,29.92,North,359,0.0,31.8,67,0.02,,---,0.02,VWS V14.01,2013-07-25 14:17:00,
2013-07-25 10:22:00,64.0,53.2,29.92,North,359,0.0,31.8,68,0.02,,---,0.02,VWS V14.01,2013-07-25 14:22:00,
2013-07-25 10:27:00,64.0,53.4,29.93,North,359,0.0,31.8,68,0.02,,---,0.02,VWS V14.01,2013-07-25 14:27:00,
2013-07-25 10:32:00,64.4,53.8,29.93,North,359,0.0,31.8,68,0.02,,---,0.02,VWS V14.01,2013-07-25 14:32:00,
2013-07-25 10:37:00,63.9,53.1,29.93,North,359,0.0,31.8,68,0.02,,---,0.02,VWS V14.01,2013-07-25 14:37:00,
2013-07-25 10:42:00,63.9,52.8,29.93,North,359,0.0,31.8,67,0.02,,---,0.02,VWS V14.01,2013-07-25 14:42:00,
2013-07-25 10:47:00,63.9,52.9,29.93,NE,51,0.0,31.8,67,0.02,,---,0.02,VWS V14.01,2013-07-25 14:47:00,
2013-07-25 10:52:00,64.0,53.0,29.94,NE,51,0.0,31.8,68,0.02,,---,0.02,VWS V14.01,2013-07-25 14:52:00,
2013-07-25 10:57:00,64.3,53.7,29.94,NE,51,0.0,31.8,68,0.02,,---,0.02,VWS V14.01,2013-07-25 14:57:00,
2013-07-25 11:02:00,63.7,53.3,29.94,NE,51,0.0,31.8,69,0.02,,---,0.02,VWS V14.01,2013-07-25 15:02:00,
2013-07-25 11:07:00,63.7,53.2,29.94,NE,51,0.0,31.8,69,0.02,,---,0.02,VWS V14.01,2013-07-25 15:07:00,
2013-07-25 11:12:00,63.8,53.2,29.94,NE,51,0.0,31.8,68,71.55,,---,0.02,VWS V14.01,2013-07-25 15:12:00,
2013-07-25 11:17:00,64.2,53.8,29.94,NE,51,0.0,31.8,69,0.02,,---,0.02,VWS V14.01,2013-07-25 15:17:00,
2013-07-25 11:22:00,63.7,52.8,29.95,North,359,0.2,31.8,68,0.02,,---,0.02,VWS V14.01,2013-07-25 15:22:00,
2013-07-25 11:27:00,64.0,53.2,29.95,North,359,0.0,31.8,68,0.02,,---,0.02,VWS V14.01,2013-07-25 15:27:00,
2013-07-25 11:32:00,63.6,52.7,29.95,North,359,0.0,31.8,68,0.02,,---,0.02,VWS V14.01,2013-07-25 15:32:00,
2013-07-25 11:37:00,63.1,52.4,29.95,NNE,25,8.3,31.8,68,72.03,,---,0.02,VWS V14.01,2013-07-25 15:37:00,
2013-07-25 11:42:00,63.5,52.9,29.95,North,359,0.0,31.8,68,0.02,,---,0.02,VWS V14.01,2013-07-25 15:42:00,
2013-07-25 11:47:00,62.7,52.2,29.95,North,359,0.0,31.8,69,0.02,,---,0.02,VWS V14.01,2013-07-25 15:47:00,
2013-07-25 11:52:00,62.9,52.0,29.95,North,359,0.0,31.8,68,0.02,,---,0.02,VWS V14.01,2013-07-25 15:52:00,
2013-07-25 11:57:00,63.1,52.9,29.95,North,359,0.0,31.8,69,0.02,,---,0.02,VWS V14.01,2013-07-25 15:57:00,
2013-07-25 12:02:00,63.0,52.5,29.95,ENE,69,8.7,31.8,68,0.02,,---,0.02,VWS V14.01,2013-07-25 16:02:00,
2013-07-25 12:07:00,62.6,52.4,29.95,ENE,69,0.0,31.8,69,0.02,,---,0.02,VWS V14.01,2013-07-25 16:07:00,
2013-07-25 12:12:00,63.0,52.7,29.95,ENE,69,0.0,31.8,69,0.02,,---,0.02,VWS V14.01,2013-07-25 16:12:00,
2013-07-25 12:17:00,63.2,53.2,29.95,ENE,69,0.0,31.8,70,0.02,,---,0.02,VWS V14.01,2013-07-25 16:17:00,
2013-07-25 12:22:00,63.4,53.5,29.95,ENE,69,0.0,31.8,70,0.02,,---,0.02,VWS V14.01,2013-07-25 16:22:00,
2013-07-25 12:27:00,62.8,53.0,29.95,ENE,69,0.0,31.8,70,0.02,,---,0.02,VWS V14.01,2013-07-25 16:27:00,
2013-07-25 12:32:00,63.0,52.9,29.94,ENE,69,0.0,31.8,70,0.02,,---,0.02,VWS V14.01,2013-07-25 16:32:00,
2013-07-25 12:37:00,63.7,53.5,29.94,ENE,69,0.0,31.8,70,71.87,,---,0.02,VWS V14.01,2013-07-25 16:37:00,
2013-07-25 12:42:00,63.6,53.8,29.95,ENE,69,0.0,31.8,70,0.02,,---,0.02,VWS V14.01,2013-07-25 16:42:00,
2013-07-25 12:47:00,63.4,53.5,29.95,North,359,0.0,31.8,70,0.02,,---,0.02,VWS V14.01,2013-07-25 16:47:00,
2013-07-25 12:52:00,63.3,53.0,29.95,North,359,12.3,31.8,69,0.02,,---,0.02,VWS V14.01,2013-07-25 16:52:00,
2013-07-25 12:57:00,63.1,53.4,29.95,North,359,0.0,31.8,70,0.02,,---,0.02,VWS V14.01,2013-07-25 16:57:00,
2013-07-25 13:02:00,63.1,53.0,29.95,NNW,328,0.0,31.8,70,70.59,,---,0.02,VWS V14.01,2013-07-25 17:02:00,
2013-07-25 13:07:00,63.0,53.5,29.96,NNW,328,0.0,31.8,71,0.02,,---,0.02,VWS V14.01,2013-07-25 17:07:00,
2013-07-25 13:12:00,62.9,53.4,29.96,North,359,0.0,31.8,71,0.02,,---,0.02,VWS V14.01,2013-07-25 17:12:00,
2013-07-25 13:17:00,63.5,54.1,29.96,North,359,0.0,31.8,71,0.02,,---,0.02,VWS V14.01,2013-07-25 17:17:00,
2013-07-25 13:22:00,63.3,53.8,29.96,North,359,0.0,31.8,71,0.02,,---,0.02,VWS V14.01,2013-07-25 17:22:00,
2013-07-25 13:27:00,63.0,53.5,29.96,North,359,0.0,31.8,71,71.39,,---,0.02,VWS V14.01,2013-07-25 17:27:00,
2013-07-25 13:32:00,63.1,53.9,29.97,North,359,0.0,31.8,72,0.02,,---,0.02,VWS V14.01,2013-07-25 17:32:00,
2013-07-25 13:37:00,63.1,54.7,29.96,North,359,0.0,31.8,74,0.02,,---,0.02,VWS V14.01,2013-07-25 17:37:00,
2013-07-25 13:42:00,62.3,53.6,29.96,North,359,0.0,31.8,73,0.02,,---,0.02,VWS V14.01,2013-07-25 17:42:00,
2013-07-25 13:47:00,62.7,53.8,29.95,North,359,0.0,31.8,73,0.02,,---,0.02,VWS V14.01,2013-07-25 17:47:00,
2013-07-25 13:52:00,62.9,54.0,29.96,North,359,0.0,31.8,73,71.39,,---,0.02,VWS V14.01,2013-07-25 17:52:00,
2013-07-25 13:57:00,62.6,54.0,29.95,North,359,0.0,31.8,74,0.02,,---,0.02,VWS V14.01,2013-07-25 17:57:00,
2013-07-25 14:02:00,63.0,54.3,29.95,North,359,0.0,31.8,73,0.02,,---,0.02,VWS V14.01,2013-07-25 18:02:00,
2013-07-25 14:07:00,62.5,53.8,29.95,North,359,0.0,31.8,73,0.02,,---,0.02,VWS V14.01,2013-07-25 18:07:00,
2013-07-25 14:12:00,63.5,54.7,29.95,North,359,0.0,31.8,73,0.02,,---,0.02,VWS V14.01,2013-07-25 18:12:00,
2013-07-25 14:17:00,63.6,54.7,29.94,North,359,0.0,31.8,73,0.02,,---,0.02,VWS V14.01,2013-07-25 18:17:00,
2013-07-25 14:22:00,62.6,53.4,29.94,NE,42,0.5,31.8,72,0.02,,---,0.02,VWS V14.01,2013-07-25 18:22:00,
2013-07-25 14:27:00,63.5,54.5,29.94,North,359,0.0,31.8,73,0.02,,---,0.02,VWS V14.01,2013-07-25 18:27:00,
2013-07-25 14:32:00,64.3,55.5,29.94,NNW,335,0.0,31.8,73,0.03,,---,0.03,VWS V14.01,2013-07-25 18:32:00,
2013-07-25 14:37:00,63.1,54.7,29.94,North,359,0.0,31.8,74,0.03,,---,0.03,VWS V14.01,2013-07-25 18:37:00,
2013-07-25 14:42:00,63.7,55.0,29.94,North,359,0.0,31.8,73,0.03,,---,0.03,VWS V14.01,2013-07-25 18:42:00,
2013-07-25 14:47:00,63.4,54.7,29.94,North,359,4.7,31.8,73,0.03,,---,0.03,VWS V14.01,2013-07-25 18:47:00,
2013-07-25 14:52:00,64.1,55.3,29.95,ENE,59,0.0,31.8,73,0.03,,---,0.03,VWS V14.01,2013-07-25 18:52:00,
2013-07-25 14:57:00,63.6,54.9,29.95,North,359,0.0,31.8,73,0.03,,---,0.03,VWS V14.01,2013-07-25 18:57:00,
2013-07-25 15:02:00,63.2,54.7,29.95,North,1,1.0,31.8,74,0.03,,---,0.03,VWS V14.01,2013-07-25 19:02:00,
2013-07-25 15:07:00,63.4,54.5,29.95,North,359,0.0,31.8,73,0.03,,---,0.03,VWS V14.01,2013-07-25 19:07:00,
2013-07-25 15:12:00,63.2,54.6,29.95,North,359,2.0,31.8,73,0.03,,---,0.03,VWS V14.01,2013-07-25 19:12:00,
2013-07-25 15:17:00,63.6,54.9,29.95,ENE,59,0.0,31.8,73,0.03,,---,0.03,VWS V14.01,2013-07-25 19:17:00,
2013-07-25 15:22:00,63.1,54.3,29.95,NNE,13,0.4,31.8,73,0.03,,---,0.03,VWS V14.01,2013-07-25 19:22:00,
2013-07-25 15:27:00,64.1,55.7,29.95,North,359,0.0,31.8,74,71.71,,---,0.03,VWS V14.01,2013-07-25 19:27:00,
2013-07-25 15:32:00,63.7,55.2,29.95,North,356,0.0,31.8,74,0.03,,---,0.03,VWS V14.01,2013-07-25 19:32:00,
2013-07-25 15:37:00,63.7,55.3,29.95,North,359,0.0,31.8,74,0.03,,---,0.03,VWS V14.01,2013-07-25 19:37:00,
2013-07-25 15:42:00,63.5,54.9,29.95,North,359,0.0,31.8,74,71.23,,---,0.03,VWS V14.01,2013-07-25 19:42:00,
2013-07-25 15:47:00,62.6,54.1,29.95,NNW,336,0.0,31.8,74,0.03,,---,0.03,VWS V14.01,2013-07-25 19:47:00,
2013-07-25 15:52:00,63.1,55.0,29.95,North,359,0.0,31.8,75,0.03,,---,0.03,VWS V14.01,2013-07-25 19:52:00,
2013-07-25 15:57:00,63.0,54.9,29.95,North,359,0.0,31.8,75,0.03,,---,0.03,VWS V14.01,2013-07-25 19:57:00,
2013-07-25 16:02:00,62.9,55.1,29.95,North,359,0.0,31.8,76,70.91,,---,0.03,VWS V14.01,2013-07-25 20:02:00,
2013-07-25 16:07:00,63.8,56.0,29.95,North,359,0.0,31.8,76,0.03,,---,0.03,VWS V14.01,2013-07-25 20:07:00,
2013-07-25 16:12:00,63.7,55.8,29.95,North,359,0.0,31.8,75,0.03,,---,0.03,VWS V14.01,2013-07-25 20:12:00,
2013-07-25 16:17:00,63.3,55.5,29.95,North,11,0.0,31.8,76,0.03,,---,0.03,VWS V14.01,2013-07-25 20:17:00,
2013-07-25 16:22:00,62.5,54.7,29.95,North,359,0.0,31.8,76,0.03,,---,0.03,VWS V14.01,2013-07-25 20:22:00,
2013-07-25 16:27:00,63.5,55.7,29.95,NNE,22,0.0,31.8,76,0.03,,---,0.03,VWS V14.01,2013-07-25 20:27:00,
2013-07-25 16:32:00,63.2,55.3,29.95,North,359,0.0,31.8,75,0.03,,---,0.03,VWS V14.01,2013-07-25 20:32:00,
2013-07-25 16:37:00,62.9,55.0,29.95,North,359,0.0,31.8,75,0.03,,---,0.03,VWS V14.01,2013-07-25 20:37:00,
2013-07-25 16:42:00,63.7,56.1,29.95,North,359,0.0,31.8,76,0.03,,---,0.03,VWS V14.01,2013-07-25 20:42:00,
2013-07-25 16:47:00,63.6,55.7,29.95,North,359,0.0,31.8,76,0.03,,---,0.03,VWS V14.01,2013-07-25 20:47:00,
2013-07-25 16:52:00,63.6,55.8,29.95,North,359,0.0,31.8,76,0.03,,---,0.03,VWS V14.01,2013-07-25 20:52:00,
2013-07-25 16:57:00,62.9,55.0,29.95,North,359,0.0,31.8,75,0.03,,---,0.03,VWS V14.01,2013-07-25 20:57:00,
2013-07-25 17:02:00,63.7,56.2,29.95,North,359,0.0,31.8,76,71.07,,---,0.03,VWS V14.01,2013-07-25 21:02:00,
2013-07-25 17:05:00,63.3,57.4,29.95,North,359,0.0,0.0,81,0.08,,---,0.08,VWS V14.01,2013-07-25 21:05:00,
2013-07-25 17:07:00,63.2,55.6,29.95,North,359,0.0,31.8,76,0.03,,---,0.03,VWS V14.01,2013-07-25 21:07:00,
2013-07-25 17:12:00,63.9,56.6,29.95,North,359,0.0,31.8,77,0.03,,---,0.03,VWS V14.01,2013-07-25 21:12:00,
2013-07-25 17:17:00,62.8,55.3,29.95,North,359,0.0,31.8,76,0.03,,---,0.03,VWS V14.01,2013-07-25 21:17:00,
2013-07-25 17:22:00,62.7,55.4,29.95,North,359,0.0,31.8,77,0.04,,---,0.04,VWS V14.01,2013-07-25 21:22:00,
2013-07-25 17:27:00,63.6,56.3,29.95,North,359,0.0,31.8,77,71.71,,---,0.04,VWS V14.01,2013-07-25 21:27:00,
2013-07-25 17:32:00,62.9,55.6,29.95,North,359,0.0,31.8,77,0.04,,---,0.04,VWS V14.01,2013-07-25 21:32:00,
2013-07-25 17:37:00,63.2,56.1,29.95,North,359,0.0,31.8,78,71.87,,---,0.04,VWS V14.01,2013-07-25 21:37:00,
2013-07-25 17:42:00,63.0,55.6,29.95,North,359,0.0,31.8,77,0.04,,---,0.04,VWS V14.01,2013-07-25 21:42:00,
2013-07-25 17:47:00,63.4,56.1,29.95,North,359,0.0,31.8,77,0.04,,---,0.04,VWS V14.01,2013-07-25 21:47:00,
2013-07-25 17:52:00,63.2,56.0,29.95,North,359,0.0,31.8,77,0.04,,---,0.04,VWS V14.01,2013-07-25 21:52:00,
2013-07-25 17:57:00,63.0,55.8,29.95,North,359,0.0,31.8,77,0.04,,---,0.04,VWS V14.01,2013-07-25 21:57:00,
2013-07-25 18:02:00,62.8,55.9,29.95,North,359,0.0,31.8,78,70.43,,---,0.04,VWS V14.01,2013-07-25 22:02:00,
2013-07-25 18:07:00,62.4,55.6,29.95,North,359,0.0,31.8,78,0.04,,---,0.04,VWS V14.01,2013-07-25 22:07:00,
2013-07-25 18:12:00,62.8,56.2,29.95,North,359,0.0,31.8,79,0.04,,---,0.04,VWS V14.01,2013-07-25 22:12:00,
2013-07-25 18:17:00,63.2,56.7,29.95,North,359,0.0,31.8,79,0.04,,---,0.04,VWS V14.01,2013-07-25 22:17:00,
2013-07-25 18:22:00,63.4,56.7,29.95,North,359,0.0,31.8,79,0.04,,---,0.04,VWS V14.01,2013-07-25 22:22:00,
2013-07-25 18:27:00,63.1,56.4,29.95,North,359,0.0,31.8,79,71.39,,---,0.04,VWS V14.01,2013-07-25 22:27:00,
2013-07-25 18:32:00,62.8,56.4,29.96,North,359,0.0,31.8,80,0.04,,---,0.04,VWS V14.01,2013-07-25 22:32:00,
2013-07-25 18:37:00,63.5,56.9,29.96,North,359,0.0,31.8,79,0.04,,---,0.04,VWS V14.01,2013-07-25 22:37:00,
2013-07-25 18:42:00,63.4,57.0,29.96,North,359,0.0,31.8,80,0.05,,---,0.05,VWS V14.01,2013-07-25 22:42:00,
2013-07-25 18:47:00,62.9,56.7,29.96,North,359,0.0,31.8,80,0.05,,---,0.05,VWS V14.01,2013-07-25 22:47:00,
2013-07-25 18:52:00,62.9,56.7,29.96,North,359,0.0,31.8,80,0.05,,---,0.05,VWS V14.01,2013-07-25 22:52:00,
2013-07-25 18:57:00,63.1,57.0,29.96,North,359,0.0,31.8,80,0.05,,---,0.05,VWS V14.01,2013-07-25 22:57:00,
2013-07-25 19:02:00,63.1,57.0,29.96,North,359,0.0,31.8,81,0.05,,---,0.05,VWS V14.01,2013-07-25 23:02:00,
2013-07-25 19:07:00,63.1,57.0,29.96,North,359,0.0,31.8,80,0.05,,---,0.05,VWS V14.01,2013-07-25 23:07:00,
2013-07-25 19:12:00,62.6,56.6,29.96,North,359,0.0,31.8,81,0.05,,---,0.05,VWS V14.01,2013-07-25 23:12:00,
2013-07-25 19:17:00,62.6,56.5,29.96,North,359,0.0,31.8,80,0.05,,---,0.05,VWS V14.01,2013-07-25 23:17:00,
2013-07-25 19:22:00,63.1,57.0,29.96,North,359,0.0,31.8,81,0.06,,---,0.06,VWS V14.01,2013-07-25 23:22:00,
2013-07-25 19:27:00,63.4,57.3,29.96,North,359,0.0,31.8,81,0.06,,---,0.06,VWS V14.01,2013-07-25 23:27:00,
2013-07-25 19:32:00,63.3,57.3,29.95,North,359,0.0,31.8,81,0.06,,---,0.06,VWS V14.01,2013-07-25 23:32:00,
2013-07-25 19:37:00,63.2,57.2,29.96,North,359,0.0,31.8,81,70.91,,---,0.06,VWS V14.01,2013-07-25 23:37:00,
2013-07-25 19:42:00,62.9,57.0,29.96,North,359,0.0,31.8,81,0.06,,---,0.06,VWS V14.01,2013-07-25 23:42:00,
2013-07-25 19:47:00,63.4,57.5,29.96,North,359,0.0,31.8,81,0.06,,---,0.06,VWS V14.01,2013-07-25 23:47:00,
2013-07-25 19:52:00,63.5,57.7,29.96,North,359,0.0,31.8,81,0.06,,---,0.06,VWS V14.01,2013-07-25 23:52:00,
2013-07-25 19:57:00,63.1,57.2,29.95,North,359,0.0,31.8,81,0.06,,---,0.06,VWS V14.01,2013-07-25 23:57:00,
2013-07-25 20:02:00,63.3,57.2,29.95,North,359,0.0,31.8,80,0.07,,---,0.07,VWS V14.01,2013-07-26 00:02:00,
2013-07-25 20:07:00,63.1,57.2,29.95,North,359,0.0,31.8,81,0.07,,---,0.07,VWS V14.01,2013-07-26 00:07:00,
2013-07-25 20:12:00,63.0,57.1,29.96,North,359,0.0,31.8,81,0.07,,---,0.07,VWS V14.01,2013-07-26 00:12:00,
2013-07-25 20:16:00,63.4,57.6,29.95,North,359,0.0,31.8,81,0.07,,---,0.07,VWS V14.01,2013-07-26 00:16:00,
2013-07-25 20:17:00,63.8,58.0,29.95,North,359,0.0,31.8,81,0.07,,---,0.07,VWS V14.01,2013-07-26 00:17:00,
2013-07-25 20:22:00,62.8,56.8,29.95,North,359,0.0,31.8,81,71.71,,---,0.07,VWS V14.01,2013-07-26 00:22:00,
2013-07-25 20:27:00,63.7,57.8,29.96,North,359,0.0,31.8,81,0.07,,---,0.07,VWS V14.01,2013-07-26 00:27:00,
2013-07-25 20:32:00,63.1,57.3,29.95,North,359,0.0,31.8,81,0.07,,---,0.07,VWS V14.01,2013-07-26 00:32:00,
2013-07-25 20:37:00,63.4,57.7,29.95,North,359,0.0,31.8,82,0.08,,---,0.08,VWS V14.01,2013-07-26 00:37:00,
2013-07-25 20:42:00,63.5,57.9,29.95,North,359,0.0,31.8,82,0.08,,---,0.08,VWS V14.01,2013-07-26 00:42:00,
2013-07-25 20:47:00,63.4,57.8,29.95,North,359,0.0,31.8,82,0.00,,---,0.08,VWS V14.01,2013-07-26 00:47:00,
2013-07-25 20:52:00,63.1,57.6,29.95,North,359,0.0,31.8,82,0.08,,---,0.08,VWS V14.01,2013-07-26 00:52:00,
2013-07-25 20:57:00,63.6,58.0,29.95,North,359,0.0,31.8,82,0.08,,---,0.08,VWS V14.01,2013-07-26 00:57:00,
2013-07-25 21:02:00,63.4,57.8,29.95,North,359,0.0,31.8,82,0.08,,---,0.08,VWS V14.01,2013-07-26 01:02:00,
2013-07-25 21:07:00,63.3,57.6,29.95,North,359,0.0,0.0,82,0.08,,---,0.08,VWS V14.01,2013-07-26 01:07:00,
2013-07-25 21:12:00,63.6,57.6,29.96,North,359,0.0,0.0,81,0.08,,---,0.08,VWS V14.01,2013-07-26 01:12:00,
2013-07-25 21:17:00,63.3,57.4,29.96,North,359,0.0,0.0,81,0.08,,---,0.08,VWS V14.01,2013-07-26 01:17:00,
2013-07-25 21:20:00,63.8,57.5,29.96,North,359,0.0,0.0,80,0.00,,---,0.09,VWS V14.01,2013-07-26 01:20:00,
2013-07-25 21:22:00,62.8,56.7,29.96,North,359,0.0,0.0,80,0.09,,---,0.09,VWS V14.01,2013-07-26 01:22:00,
2013-07-25 21:27:00,63.4,57.4,29.96,North,359,0.0,0.0,81,0.09,,---,0.09,VWS V14.01,2013-07-26 01:27:00,
2013-07-25 21:31:00,63.1,57.7,29.95,North,359,0.0,0.0,82,0.01,,---,0.11,VWS V14.01,2013-07-26 01:31:00,
2013-07-25 21:32:00,63.2,57.1,29.96,North,359,0.0,0.0,81,0.09,,---,0.09,VWS V14.01,2013-07-26 01:32:00,
2013-07-25 21:37:00,63.9,57.7,29.96,North,359,0.0,0.0,80,0.00,,---,0.09,VWS V14.01,2013-07-26 01:37:00,
2013-07-25 21:42:00,63.3,57.1,29.95,North,359,0.0,0.0,80,0.09,,---,0.09,VWS V14.01,2013-07-26 01:42:00,
2013-07-25 21:47:00,63.6,57.4,29.95,North,359,0.0,0.0,80,0.09,,---,0.09,VWS V14.01,2013-07-26 01:47:00,
2013-07-25 21:52:00,63.1,56.9,29.95,North,359,0.0,0.0,80,0.09,,---,0.09,VWS V14.01,2013-07-26 01:52:00,
2013-07-25 21:57:00,63.4,57.0,29.95,North,359,0.0,0.0,80,0.09,,---,0.09,VWS V14.01,2013-07-26 01:57:00,
2013-07-25 22:02:00,62.9,56.4,29.96,North,359,0.0,0.0,79,0.09,,---,0.09,VWS V14.01,2013-07-26 02:02:00,
2013-07-25 22:07:00,63.0,56.5,29.96,North,359,0.0,0.0,79,0.02,,---,0.10,VWS V14.01,2013-07-26 02:07:00,
2013-07-25 22:12:00,63.3,56.7,29.95,North,359,0.0,0.0,79,0.02,,---,0.10,VWS V14.01,2013-07-26 02:12:00,
2013-07-25 22:17:00,63.7,57.2,29.96,North,359,0.0,0.0,79,0.02,,---,0.10,VWS V14.01,2013-07-26 02:17:00,
2013-07-25 22:22:00,63.4,56.8,29.96,North,359,0.0,0.0,79,0.01,,---,0.10,VWS V14.01,2013-07-26 02:22:00,
2013-07-25 22:27:00,63.4,57.1,29.95,North,359,0.0,0.0,80,0.01,,---,0.10,VWS V14.01,2013-07-26 02:27:00,
2013-07-25 22:32:00,63.5,57.6,29.95,North,359,0.0,0.0,81,0.01,,---,0.10,VWS V14.01,2013-07-26 02:32:00,
2013-07-25 22:37:00,62.7,56.9,29.95,North,359,0.0,0.0,81,0.01,,---,0.10,VWS V14.01,2013-07-26 02:37:00,
2013-07-25 22:42:00,63.7,57.9,29.95,North,359,0.0,0.0,82,0.01,,---,0.10,VWS V14.01,2013-07-26 02:42:00,
2013-07-25 22:47:00,64.3,58.5,29.96,North,359,0.0,0.0,82,0.01,,---,0.10,VWS V14.01,2013-07-26 02:47:00,
2013-07-25 22:52:00,63.2,57.5,29.96,North,359,0.0,0.0,82,0.01,,---,0.10,VWS V14.01,2013-07-26 02:52:00,
2013-07-25 22:57:00,63.1,57.4,29.95,North,359,0.0,0.0,82,0.01,,---,0.10,VWS V14.01,2013-07-26 02:57:00,
2013-07-25 23:02:00,62.7,56.9,29.95,North,359,0.0,0.0,81,0.01,,---,0.10,VWS V14.01,2013-07-26 03:02:00,
2013-07-25 23:07:00,63.1,57.3,29.95,North,359,0.0,0.0,81,0.00,,---,0.10,VWS V14.01,2013-07-26 03:07:00,
2013-07-25 23:12:00,63.3,57.5,29.95,North,359,0.0,0.0,81,0.01,,---,0.11,VWS V14.01,2013-07-26 03:12:00,
2013-07-25 23:17:00,63.3,57.7,29.96,North,359,0.0,0.0,82,0.01,,---,0.11,VWS V14.01,2013-07-26 03:17:00,
2013-07-25 23:22:00,63.2,57.7,29.96,North,359,0.0,0.0,82,0.00,,---,0.11,VWS V14.01,2013-07-26 03:22:00,
2013-07-25 23:27:00,63.2,57.7,29.95,North,359,0.0,0.0,82,0.01,,---,0.11,VWS V14.01,2013-07-26 03:27:00,
2013-07-25 23:32:00,63.9,58.5,29.95,North,359,0.0,0.0,83,0.01,,---,0.11,VWS V14.01,2013-07-26 03:32:00,
2013-07-25 23:37:00,63.7,58.3,29.96,North,359,0.0,0.0,82,0.01,,---,0.11,VWS V14.01,2013-07-26 03:37:00,
2013-07-25 23:42:00,64.0,58.6,29.95,North,359,0.0,0.0,82,0.01,,---,0.11,VWS V14.01,2013-07-26 03:42:00,
2013-07-25 23:47:00,63.4,58.0,29.96,North,359,0.0,0.0,82,0.01,,---,0.11,VWS V14.01,2013-07-26 03:47:00,
2013-07-25 23:52:00,63.2,57.8,29.96,North,359,0.0,0.0,83,0.01,,---,0.11,VWS V14.01,2013-07-26 03:52:00,
2013-07-25 23:57:00,63.4,57.7,29.96,North,359,0.0,0.0,82,0.01,,---,0.11,VWS V14.01,2013-07-26 03:57:00,